Time;durP1;ratioP1;P1;durP2;ratioP2;P2;SDS_P1;SDS_P2;PMS_P1;PMS_P2;Temp;Humidity;BMP_temperature;BMP_pressure;BME280_temperature;BME280_humidity;BME280_pressure;Samples;Min_cycle;Max_cycle;Signal;HPM_P1;HPM_P2
2022/03/10 00:02:02;;;;;;;2.53;1.23;;;3.30;62.80;;;;;;5113060;28;20122;-72
2022/03/10 00:04:29;;;;;;;1.88;1.05;;;3.30;62.80;;;;;;5112948;28;20084;-72
2022/03/10 00:06:55;;;;;;;2.70;1.27;;;3.30;62.90;;;;;;5112815;28;20044;-72
2022/03/10 00:09:21;;;;;;;1.58;0.90;;;3.30;62.90;;;;;;5094735;28;20123;-73
2022/03/10 00:11:47;;;;;;;2.63;1.02;;;3.20;62.90;;;;;;5112955;28;20096;-72
2022/03/10 00:14:14;;;;;;;2.30;1.27;;;3.20;62.90;;;;;;5112948;28;20043;-72
2022/03/10 00:16:40;;;;;;;1.77;0.90;;;3.20;62.90;;;;;;5112830;28;20063;-72
2022/03/10 00:19:06;;;;;;;2.63;1.30;;;3.20;62.90;;;;;;5092617;28;20082;-72
2022/03/10 00:21:31;;;;;;;2.92;1.30;;;3.10;63.00;;;;;;5094666;28;20047;-73
2022/03/10 00:23:57;;;;;;;2.13;1.27;;;3.10;63.20;;;;;;5095094;28;20047;-73
2022/03/10 00:26:23;;;;;;;1.98;1.02;;;3.10;63.20;;;;;;5112845;28;20043;-72
2022/03/10 00:28:49;;;;;;;1.80;1.08;;;3.10;63.20;;;;;;5112693;28;20043;-72
2022/03/10 00:31:15;;;;;;;2.13;1.40;;;3.10;63.30;;;;;;5112593;28;20066;-72
2022/03/10 00:33:41;;;;;;;2.28;1.10;;;2.90;63.10;;;;;;5094306;28;20092;-72
2022/03/10 00:36:07;;;;;;;2.03;1.00;;;3.00;63.20;;;;;;5094361;28;20050;-72
2022/03/10 00:38:33;;;;;;;2.05;1.05;;;2.90;63.20;;;;;;5112637;28;20097;-73
2022/03/10 00:40:59;;;;;;;2.50;1.23;;;3.00;63.40;;;;;;5113008;28;20055;-72
2022/03/10 00:43:26;;;;;;;3.25;1.40;;;3.00;63.50;;;;;;5094696;28;20092;-72
2022/03/10 00:45:52;;;;;;;3.47;1.70;;;2.90;63.40;;;;;;5112643;28;20050;-72
2022/03/10 00:48:18;;;;;;;3.25;1.67;;;3.00;63.40;;;;;;5112394;28;20036;-72
2022/03/10 00:50:43;;;;;;;2.05;1.10;;;2.90;63.30;;;;;;5112547;28;20040;-72
2022/03/10 00:53:11;;;;;;;1.58;0.98;;;2.90;63.30;;;;;;5113033;28;20032;-72
2022/03/10 00:55:36;;;;;;;3.13;1.40;;;2.90;63.20;;;;;;5112883;28;20063;-72
2022/03/10 00:58:02;;;;;;;1.85;0.93;;;2.90;63.30;;;;;;5094117;28;20083;-72
2022/03/10 01:00:29;;;;;;;2.85;1.23;;;2.90;63.40;;;;;;5077425;28;20047;-72
2022/03/10 01:02:57;;;;;;;2.05;1.10;;;2.90;63.40;;;;;;5077988;28;20043;-72
2022/03/10 01:05:23;;;;;;;1.92;1.05;;;2.90;63.40;;;;;;5112786;28;20096;-72
2022/03/10 01:07:49;;;;;;;2.15;1.10;;;2.80;63.40;;;;;;5093979;28;20039;-72
2022/03/10 01:10:15;;;;;;;2.63;1.40;;;2.80;63.50;;;;;;5112248;28;20063;-72
2022/03/10 01:12:44;;;;;;;2.28;1.13;;;2.80;63.60;;;;;;5096157;28;20039;-72
2022/03/10 01:15:11;;;;;;;2.03;0.90;;;2.80;63.60;;;;;;5115673;28;20039;-72
2022/03/10 01:17:37;;;;;;;2.22;1.10;;;2.80;63.60;;;;;;5097656;28;20052;-72
2022/03/10 01:20:04;;;;;;;2.00;1.30;;;2.80;63.60;;;;;;5116123;28;20055;-72
2022/03/10 01:22:30;;;;;;;2.00;0.98;;;2.80;63.50;;;;;;5115965;28;20062;-72
2022/03/10 01:24:55;;;;;;;3.30;1.50;;;2.80;63.70;;;;;;5097179;28;20036;-72
2022/03/10 01:27:21;;;;;;;2.15;1.00;;;2.70;63.70;;;;;;5115860;28;20533;-72
2022/03/10 01:29:47;;;;;;;1.65;0.90;;;2.70;63.70;;;;;;5115636;28;20039;-72
2022/03/10 01:32:13;;;;;;;1.88;0.88;;;2.70;63.70;;;;;;5080455;28;20040;-72
2022/03/10 01:34:39;;;;;;;1.42;0.80;;;2.70;63.70;;;;;;5115941;28;20483;-72
2022/03/10 01:37:04;;;;;;;1.75;0.98;;;2.70;63.70;;;;;;5115539;28;20513;-72
2022/03/10 01:39:32;;;;;;;1.73;0.80;;;2.60;63.80;;;;;;5115702;28;20043;-72
2022/03/10 01:41:59;;;;;;;1.48;0.80;;;2.50;63.80;;;;;;5115367;28;20040;-72
2022/03/10 01:44:24;;;;;;;1.50;0.90;;;2.60;64.00;;;;;;5080162;28;20048;-72
2022/03/10 01:46:51;;;;;;;2.00;0.90;;;2.60;64.10;;;;;;5096988;28;20509;-72
2022/03/10 01:49:16;;;;;;;1.45;0.80;;;2.60;64.10;;;;;;5115822;28;20142;-72
2022/03/10 01:51:43;;;;;;;1.77;0.90;;;2.50;64.00;;;;;;5115331;28;20525;-72
2022/03/10 01:54:09;;;;;;;1.05;0.70;;;2.50;64.10;;;;;;5096920;28;20067;-73
2022/03/10 01:56:35;;;;;;;1.60;1.02;;;2.50;64.20;;;;;;5115134;28;20071;-72
2022/03/10 01:59:03;;;;;;;1.95;0.93;;;2.50;64.30;;;;;;5096755;28;20077;-72
2022/03/10 02:01:29;;;;;;;1.13;0.57;;;2.40;64.30;;;;;;5114922;28;20108;-72
2022/03/10 02:03:57;;;;;;;2.47;0.95;;;2.40;64.40;;;;;;5097119;28;20489;-72
2022/03/10 02:06:23;;;;;;;1.85;0.88;;;2.40;64.40;;;;;;5096510;28;20035;-71
2022/03/10 02:11:36;;;;;;;0.98;0.75;;;2.30;64.40;;;;;;5114806;28;20040;-71
2022/03/10 02:17:19;;;;;;;1.92;1.10;;;2.30;64.50;;;;;;5114968;28;20039;-71
2022/03/10 02:19:25;;;;;;;1.73;0.82;;;2.30;64.60;;;;;;5114624;28;20481;-72
2022/03/10 02:21:51;;;;;;;2.22;0.60;;;2.30;64.60;;;;;;5096583;28;20051;-71
2022/03/10 02:24:17;;;;;;;1.35;0.73;;;2.30;64.60;;;;;;5114828;28;20042;-72
2022/03/10 02:26:43;;;;;;;1.85;0.77;;;2.30;64.60;;;;;;5079450;28;20056;-72
2022/03/10 02:29:09;;;;;;;1.42;0.80;;;2.30;64.70;;;;;;5096808;28;20042;-71
2022/03/10 02:31:35;;;;;;;1.42;0.80;;;2.20;64.70;;;;;;5096505;28;20500;-71
2022/03/10 02:34:00;;;;;;;1.40;0.70;;;2.20;64.80;;;;;;5096280;28;20118;-72
2022/03/10 02:36:26;;;;;;;1.33;0.73;;;2.20;64.90;;;;;;5114381;28;20071;-72
2022/03/10 02:38:52;;;;;;;1.48;0.85;;;2.20;64.90;;;;;;5096112;28;20069;-71
2022/03/10 02:41:17;;;;;;;1.27;0.60;;;2.10;64.80;;;;;;5114485;28;20122;-71
2022/03/10 02:43:43;;;;;;;1.38;0.90;;;2.10;64.90;;;;;;5095954;28;20557;-72
2022/03/10 02:46:09;;;;;;;1.77;1.10;;;2.00;64.90;;;;;;5095885;28;20042;-72
2022/03/10 02:48:34;;;;;;;1.73;0.95;;;2.00;65.10;;;;;;5114738;28;20071;-71
2022/03/10 02:51:00;;;;;;;1.10;0.80;;;2.00;65.20;;;;;;5114574;28;20086;-72
2022/03/10 02:53:26;;;;;;;2.10;1.00;;;2.00;65.30;;;;;;5095865;28;20050;-72
2022/03/10 02:55:52;;;;;;;1.30;0.70;;;1.90;65.20;;;;;;5096242;28;20512;-73
2022/03/10 02:58:17;;;;;;;1.38;0.63;;;2.00;65.20;;;;;;5114015;28;20043;-73
2022/03/10 03:00:44;;;;;;;0.95;0.63;;;2.00;65.20;;;;;;5113932;28;20046;-73
2022/03/10 03:03:10;;;;;;;2.08;0.95;;;1.90;65.20;;;;;;5113957;28;20566;-73
2022/03/10 03:05:36;;;;;;;2.00;0.90;;;1.90;65.20;;;;;;5095659;28;20047;-72
2022/03/10 03:08:02;;;;;;;2.13;0.95;;;1.90;65.50;;;;;;5095591;28;20359;-73
2022/03/10 03:10:27;;;;;;;1.77;0.80;;;1.90;65.40;;;;;;5114211;28;20034;-73
2022/03/10 03:12:53;;;;;;;1.40;0.70;;;1.90;65.40;;;;;;5095809;28;20050;-73
2022/03/10 03:15:19;;;;;;;0.73;0.55;;;1.90;65.40;;;;;;5114384;28;20076;-73
2022/03/10 03:17:47;;;;;;;2.20;0.80;;;1.80;65.40;;;;;;5078860;28;20048;-74
2022/03/10 03:20:14;;;;;;;1.35;0.65;;;1.70;65.30;;;;;;5114078;28;20118;-72
2022/03/10 03:22:42;;;;;;;2.45;1.05;;;1.70;65.50;;;;;;5096208;28;20039;-72
2022/03/10 03:25:11;;;;;;;1.17;0.77;;;1.60;65.60;;;;;;5114180;28;20047;-72
2022/03/10 03:27:37;;;;;;;1.30;1.00;;;1.70;65.80;;;;;;5095368;28;20046;-73
2022/03/10 03:30:04;;;;;;;2.42;1.08;;;1.70;65.80;;;;;;5096055;28;20118;-72
2022/03/10 03:32:30;;;;;;;1.55;0.73;;;1.60;65.80;;;;;;5113934;28;20036;-72
2022/03/10 03:34:56;;;;;;;1.38;0.80;;;1.70;65.90;;;;;;5113004;28;20121;-72
2022/03/10 03:37:22;;;;;;;1.15;0.65;;;1.80;65.80;;;;;;5114026;28;20481;-73
2022/03/10 03:39:47;;;;;;;1.80;0.70;;;1.70;65.70;;;;;;5095082;28;20405;-72
2022/03/10 03:42:13;;;;;;;1.65;0.75;;;1.80;65.60;;;;;;5113503;28;20035;-72
2022/03/10 03:44:39;;;;;;;1.15;0.80;;;1.70;65.60;;;;;;5113456;28;20048;-73
2022/03/10 03:47:04;;;;;;;1.25;0.80;;;1.70;65.60;;;;;;5095791;28;20043;-73
2022/03/10 03:49:30;;;;;;;1.60;0.70;;;1.70;65.70;;;;;;5095238;28;20431;-73
2022/03/10 03:51:56;;;;;;;1.15;0.70;;;1.70;65.80;;;;;;5095180;28;20047;-73
2022/03/10 03:54:22;;;;;;;1.98;0.80;;;1.60;65.80;;;;;;5095249;28;20047;-73
2022/03/10 03:56:47;;;;;;;1.83;0.93;;;1.60;65.90;;;;;;5094925;28;20043;-73
2022/03/10 03:59:14;;;;;;;1.85;0.93;;;1.70;66.00;;;;;;5113106;28;20051;-73
2022/03/10 04:01:40;;;;;;;0.75;0.40;;;1.60;65.90;;;;;;5113063;28;20039;-73
2022/03/10 04:04:06;;;;;;;1.77;0.70;;;1.70;66.00;;;;;;5113583;28;20042;-73
2022/03/10 04:06:31;;;;;;;1.50;0.77;;;1.60;66.00;;;;;;5113516;28;20043;-72
2022/03/10 04:08:57;;;;;;;1.35;0.77;;;1.50;66.00;;;;;;5113029;28;20074;-73
2022/03/10 04:11:23;;;;;;;1.90;1.00;;;1.50;66.00;;;;;;5112802;28;20039;-73
2022/03/10 04:13:49;;;;;;;1.33;0.70;;;1.50;66.10;;;;;;5112917;28;20035;-73
2022/03/10 04:16:14;;;;;;;1.30;0.82;;;1.40;66.20;;;;;;5113285;28;20063;-73
2022/03/10 04:18:40;;;;;;;1.15;0.60;;;1.40;66.30;;;;;;5094941;28;20473;-72
2022/03/10 04:21:06;;;;;;;1.42;0.80;;;1.40;66.40;;;;;;5112797;28;20035;-73
2022/03/10 04:23:32;;;;;;;0.77;0.50;;;1.40;66.40;;;;;;5112696;28;20028;-72
2022/03/10 04:25:58;;;;;;;1.20;0.70;;;1.40;66.50;;;;;;5112718;28;20031;-73
2022/03/10 04:28:24;;;;;;;1.10;0.75;;;1.30;66.60;;;;;;5112460;28;20132;-73
2022/03/10 04:30:50;;;;;;;1.75;0.90;;;1.20;66.70;;;;;;5112742;28;20489;-73
2022/03/10 04:33:16;;;;;;;1.73;0.85;;;1.20;66.80;;;;;;5094943;28;20032;-73
2022/03/10 04:35:42;;;;;;;1.13;0.70;;;1.20;66.80;;;;;;5094292;28;20101;-73
2022/03/10 04:38:08;;;;;;;1.40;0.70;;;1.10;66.80;;;;;;5112449;28;20039;-73
2022/03/10 04:40:33;;;;;;;2.45;1.30;;;1.10;66.90;;;;;;5112657;28;20465;-73
2022/03/10 04:43:00;;;;;;;1.85;0.95;;;1.10;66.90;;;;;;5112621;28;20108;-73
2022/03/10 04:45:26;;;;;;;1.05;0.65;;;1.10;67.00;;;;;;5112526;28;20043;-72
2022/03/10 04:47:51;;;;;;;3.22;1.02;;;1.10;66.90;;;;;;5111141;28;20046;-73
2022/03/10 04:50:18;;;;;;;2.17;0.82;;;1.00;66.90;;;;;;5112389;28;20047;-73
2022/03/10 04:52:44;;;;;;;2.63;1.20;;;1.10;67.10;;;;;;5112963;28;20036;-73
2022/03/10 04:55:11;;;;;;;1.40;0.93;;;1.00;67.10;;;;;;5112394;28;20043;-72
2022/03/10 04:57:37;;;;;;;1.75;1.00;;;1.00;67.10;;;;;;5112493;28;20127;-73
2022/03/10 05:00:08;;;;;;;1.77;1.10;;;1.00;67.20;;;;;;5092147;28;20050;-73
2022/03/10 05:02:35;;;;;;;2.15;1.13;;;1.00;67.30;;;;;;5112865;28;20043;-72
2022/03/10 05:05:02;;;;;;;2.30;1.08;;;0.90;67.20;;;;;;5112482;28;20442;-73
2022/03/10 05:07:28;;;;;;;1.60;0.90;;;0.90;67.40;;;;;;5112876;28;20128;-73
2022/03/10 05:09:54;;;;;;;1.30;0.80;;;0.90;67.40;;;;;;5094185;28;20036;-73
2022/03/10 05:12:19;;;;;;;2.25;1.20;;;0.90;67.40;;;;;;5077344;28;20044;-72
2022/03/10 05:14:46;;;;;;;1.20;0.80;;;1.00;67.30;;;;;;5094060;28;20048;-73
2022/03/10 05:17:12;;;;;;;1.58;0.82;;;1.00;67.30;;;;;;5112238;28;20405;-73
2022/03/10 05:19:37;;;;;;;2.53;0.90;;;1.00;67.20;;;;;;5112248;28;20040;-72
2022/03/10 05:22:03;;;;;;;2.35;0.85;;;1.00;67.20;;;;;;5112149;28;20054;-73
2022/03/10 05:24:29;;;;;;;1.83;0.90;;;1.10;67.20;;;;;;5094264;28;20071;-72
2022/03/10 05:26:57;;;;;;;1.67;0.82;;;1.10;67.10;;;;;;5112698;28;20065;-73
2022/03/10 05:29:23;;;;;;;2.08;1.00;;;1.10;67.00;;;;;;5112899;28;20036;-73
2022/03/10 05:31:48;;;;;;;2.42;1.10;;;1.10;67.00;;;;;;5112678;28;20043;-72
2022/03/10 05:34:14;;;;;;;2.20;1.05;;;1.20;67.00;;;;;;5112564;28;20032;-72
2022/03/10 05:36:40;;;;;;;1.92;0.90;;;1.10;66.90;;;;;;5094077;28;20120;-72
2022/03/10 05:39:06;;;;;;;3.08;1.20;;;1.10;66.90;;;;;;5112454;28;20036;-72
2022/03/10 05:41:32;;;;;;;1.67;1.00;;;1.10;67.00;;;;;;5112590;28;20050;-72
2022/03/10 05:43:58;;;;;;;1.52;1.00;;;1.20;67.10;;;;;;5112521;28;20477;-73
2022/03/10 05:46:24;;;;;;;1.58;0.82;;;1.10;67.00;;;;;;5112492;28;20124;-73
2022/03/10 05:48:50;;;;;;;1.20;0.65;;;1.10;67.00;;;;;;5094209;28;20480;-73
2022/03/10 05:51:16;;;;;;;1.70;0.90;;;1.10;67.00;;;;;;5112336;28;20131;-73
2022/03/10 05:53:42;;;;;;;1.42;0.77;;;1.10;67.00;;;;;;5111980;28;20140;-72
2022/03/10 05:56:08;;;;;;;1.65;0.80;;;1.20;67.20;;;;;;5112442;28;20539;-73
2022/03/10 05:58:34;;;;;;;2.33;0.80;;;1.20;67.20;;;;;;5113298;28;20047;-73
2022/03/10 06:01:00;;;;;;;1.42;0.65;;;1.20;67.10;;;;;;5114859;28;20503;-73
2022/03/10 06:03:26;;;;;;;2.00;0.77;;;1.20;67.00;;;;;;5096881;28;20035;-73
2022/03/10 06:05:51;;;;;;;0.73;0.45;;;1.20;67.00;;;;;;5115513;28;20617;-73
2022/03/10 06:08:17;;;;;;;1.10;0.80;;;1.10;67.00;;;;;;5096971;28;20434;-73
2022/03/10 06:10:43;;;;;;;1.80;0.95;;;1.10;67.10;;;;;;5115415;28;20389;-73
2022/03/10 06:13:10;;;;;;;1.45;0.73;;;1.10;67.20;;;;;;5097475;28;20507;-73
2022/03/10 06:15:36;;;;;;;2.85;1.10;;;1.10;67.30;;;;;;5097082;28;20083;-73
2022/03/10 06:18:02;;;;;;;1.25;0.60;;;1.10;67.30;;;;;;5115057;28;20040;-73
2022/03/10 06:20:30;;;;;;;2.28;1.15;;;1.10;67.40;;;;;;5096867;28;20401;-73
2022/03/10 06:22:56;;;;;;;1.58;1.00;;;1.10;67.40;;;;;;5114806;28;20035;-73
2022/03/10 06:25:22;;;;;;;2.03;0.80;;;1.10;67.40;;;;;;5115385;28;20051;-73
2022/03/10 06:27:48;;;;;;;2.35;0.85;;;1.20;67.50;;;;;;5114990;28;20035;-72
2022/03/10 06:30:14;;;;;;;2.13;1.17;;;1.10;67.40;;;;;;5115140;28;20104;-72
2022/03/10 06:32:40;;;;;;;2.33;1.20;;;1.20;67.40;;;;;;5115094;28;20043;-72
2022/03/10 06:35:07;;;;;;;1.85;0.95;;;1.20;67.30;;;;;;5114828;28;20032;-72
2022/03/10 06:37:33;;;;;;;1.67;0.85;;;1.20;67.30;;;;;;5096859;28;20042;-73
2022/03/10 06:39:59;;;;;;;1.85;0.95;;;1.30;67.20;;;;;;5114664;28;20035;-72
2022/03/10 06:42:24;;;;;;;1.90;1.05;;;1.30;67.20;;;;;;5096320;28;20492;-72
2022/03/10 06:44:50;;;;;;;2.92;1.50;;;1.40;67.00;;;;;;5079435;28;20081;-73
2022/03/10 06:47:16;;;;;;;2.45;0.98;;;1.50;67.00;;;;;;5114478;28;20039;-73
2022/03/10 06:49:42;;;;;;;2.15;1.20;;;1.50;66.80;;;;;;5096533;28;20035;-73
2022/03/10 06:52:09;;;;;;;1.48;1.00;;;1.60;67.30;;;;;;5096439;28;20557;-72
2022/03/10 06:54:35;;;;;;;3.00;1.27;;;1.70;66.50;;;;;;5114647;28;20469;-73
2022/03/10 06:57:01;;;;;;;2.08;1.10;;;1.80;66.40;;;;;;5114804;28;20047;-72
2022/03/10 06:59:26;;;;;;;1.48;0.95;;;1.80;66.20;;;;;;5115154;28;20043;-73
2022/03/10 07:01:52;;;;;;;2.03;1.20;;;1.90;66.10;;;;;;5096439;28;20043;-72
2022/03/10 07:04:18;;;;;;;2.08;0.95;;;2.00;66.00;;;;;;5114625;28;20097;-73
2022/03/10 07:06:44;;;;;;;2.05;0.95;;;2.10;65.80;;;;;;5096035;28;20085;-72
2022/03/10 07:09:09;;;;;;;2.05;1.00;;;2.20;65.60;;;;;;5095287;28;20032;-73
2022/03/10 07:11:35;;;;;;;2.70;1.10;;;2.20;65.60;;;;;;5114214;28;20087;-72
2022/03/10 07:14:01;;;;;;;2.28;1.00;;;2.40;65.60;;;;;;5114550;28;20031;-73
2022/03/10 07:16:27;;;;;;;1.42;1.02;;;2.40;65.50;;;;;;5113962;28;20564;-73
2022/03/10 07:18:53;;;;;;;1.88;0.73;;;2.50;65.30;;;;;;5113519;28;20039;-73
2022/03/10 07:21:20;;;;;;;2.22;1.05;;;2.60;65.20;;;;;;5113826;28;20035;-73
2022/03/10 07:23:46;;;;;;;1.90;1.00;;;2.70;65.10;;;;;;5095260;28;20039;-71
2022/03/10 07:26:12;;;;;;;3.17;0.80;;;2.80;65.00;;;;;;5095978;28;20040;-71
2022/03/10 07:28:39;;;;;;;2.80;0.93;;;2.90;64.90;;;;;;5095383;28;20046;-72
2022/03/10 07:31:05;;;;;;;2.47;1.00;;;3.00;64.80;;;;;;5113699;28;20118;-73
2022/03/10 07:33:30;;;;;;;1.77;1.08;;;3.10;64.60;;;;;;5113889;28;20059;-73
2022/03/10 07:35:56;;;;;;;2.30;1.17;;;3.20;64.60;;;;;;5113847;28;20063;-73
2022/03/10 07:38:22;;;;;;;2.78;1.20;;;3.30;64.40;;;;;;5095731;28;20500;-73
2022/03/10 07:40:48;;;;;;;2.38;1.00;;;3.40;64.30;;;;;;5095709;28;20039;-73
2022/03/10 07:43:14;;;;;;;2.28;1.00;;;3.40;64.10;;;;;;5114033;28;20192;-73
2022/03/10 07:45:39;;;;;;;2.13;0.82;;;3.60;64.10;;;;;;5095382;28;20088;-72
2022/03/10 07:48:05;;;;;;;3.28;1.45;;;3.70;64.00;;;;;;5113945;28;20397;-72
2022/03/10 07:50:31;;;;;;;3.20;1.50;;;3.80;63.90;;;;;;5095586;28;20137;-72
2022/03/10 07:52:57;;;;;;;2.75;1.40;;;3.90;63.80;;;;;;5095349;28;20040;-74
2022/03/10 07:55:23;;;;;;;2.33;1.10;;;3.90;63.60;;;;;;5095396;28;20062;-73
2022/03/10 07:57:49;;;;;;;2.00;1.20;;;4.00;63.60;;;;;;5095228;28;20127;-74
2022/03/10 08:00:16;;;;;;;4.75;2.47;;;4.30;63.50;;;;;;5113455;28;20401;-72
2022/03/10 08:02:42;;;;;;;3.25;1.73;;;4.30;63.30;;;;;;5095103;28;20505;-73
2022/03/10 08:05:09;;;;;;;3.22;1.88;;;4.50;63.30;;;;;;5113937;28;20047;-71
2022/03/10 08:07:35;;;;;;;4.03;2.00;;;4.60;63.10;;;;;;5078289;28;20047;-71
2022/03/10 08:10:04;;;;;;;3.10;1.70;;;4.80;63.00;;;;;;5095037;28;20050;-74
2022/03/10 08:12:31;;;;;;;3.55;1.80;;;4.90;62.80;;;;;;5113041;28;20036;-73
2022/03/10 08:14:57;;;;;;;4.00;1.70;;;5.10;62.70;;;;;;5113604;28;20413;-74
2022/03/10 08:17:23;;;;;;;2.97;1.83;;;5.20;62.60;;;;;;5112910;28;20043;-74
2022/03/10 08:19:49;;;;;;;3.25;1.38;;;5.30;62.40;;;;;;5095015;28;20043;-73
2022/03/10 08:22:16;;;;;;;2.50;1.50;;;5.50;62.30;;;;;;5113233;28;20049;-72
2022/03/10 08:24:43;;;;;;;3.08;1.60;;;5.60;62.20;;;;;;5113024;28;20099;-73
2022/03/10 08:27:09;;;;;;;2.05;1.08;;;5.70;62.10;;;;;;5093313;28;20562;-73
2022/03/10 08:29:35;;;;;;;3.95;1.70;;;5.90;62.10;;;;;;5113523;28;20069;-73
2022/03/10 08:32:01;;;;;;;2.72;1.40;;;5.90;62.00;;;;;;5112991;28;20083;-73
2022/03/10 08:34:26;;;;;;;3.35;1.25;;;6.00;62.00;;;;;;5112908;28;20130;-73
2022/03/10 08:36:52;;;;;;;2.88;1.30;;;6.10;62.00;;;;;;5112758;28;20435;-73
2022/03/10 08:39:18;;;;;;;2.67;1.40;;;6.20;62.00;;;;;;5061158;28;20032;-73
2022/03/10 08:41:44;;;;;;;3.45;1.63;;;6.30;62.00;;;;;;5094646;28;20043;-73
2022/03/10 08:44:12;;;;;;;4.05;1.48;;;6.40;62.00;;;;;;5112817;28;20035;-73
2022/03/10 08:46:39;;;;;;;2.88;1.55;;;6.50;61.90;;;;;;5112869;28;20044;-74
2022/03/10 08:49:05;;;;;;;2.05;1.30;;;6.50;61.90;;;;;;5094851;28;20093;-74
2022/03/10 08:51:30;;;;;;;3.60;1.45;;;6.60;61.90;;;;;;5113007;28;20044;-74
2022/03/10 08:53:56;;;;;;;3.33;1.70;;;6.70;61.90;;;;;;5112541;28;20036;-73
2022/03/10 08:56:22;;;;;;;2.88;1.67;;;6.80;61.80;;;;;;5094614;28;20031;-72
2022/03/10 08:58:48;;;;;;;2.15;1.25;;;6.90;61.80;;;;;;5112567;28;20060;-73
2022/03/10 09:01:13;;;;;;;2.65;1.40;;;7.10;61.80;;;;;;5094206;28;20097;-72
2022/03/10 09:03:39;;;;;;;2.13;1.30;;;7.10;61.80;;;;;;5112370;28;20052;-72
2022/03/10 09:06:07;;;;;;;2.78;1.30;;;7.20;61.70;;;;;;5094165;28;20122;-72
2022/03/10 09:08:34;;;;;;;3.03;1.77;;;7.30;61.60;;;;;;5112796;28;20052;-72
2022/03/10 09:10:59;;;;;;;2.35;1.20;;;7.50;61.60;;;;;;5094675;28;20084;-73
2022/03/10 09:13:25;;;;;;;1.83;1.10;;;7.50;61.40;;;;;;5094023;28;20419;-72
2022/03/10 09:15:51;;;;;;;4.10;1.70;;;7.60;61.40;;;;;;5112688;28;20046;-71
2022/03/10 09:18:17;;;;;;;3.20;1.50;;;7.70;61.30;;;;;;5112579;28;20047;-71
2022/03/10 09:20:43;;;;;;;4.30;1.55;;;7.90;61.30;;;;;;5112184;28;20071;-72
2022/03/10 09:23:09;;;;;;;3.45;1.60;;;8.00;61.20;;;;;;5112489;28;20047;-71
2022/03/10 09:25:34;;;;;;;2.40;1.35;;;8.20;61.10;;;;;;5112440;28;20094;-71
2022/03/10 09:28:00;;;;;;;2.63;1.30;;;8.20;61.00;;;;;;5094080;28;20123;-71
2022/03/10 09:30:26;;;;;;;2.72;1.30;;;8.30;60.90;;;;;;5093710;28;20122;-71
2022/03/10 09:32:52;;;;;;;1.95;1.13;;;8.50;60.90;;;;;;5112430;28;20520;-73
2022/03/10 09:35:18;;;;;;;2.95;1.50;;;8.50;60.70;;;;;;5115660;28;20120;-71
2022/03/10 09:37:44;;;;;;;2.08;1.20;;;8.70;60.70;;;;;;5097005;28;20049;-72
2022/03/10 09:40:11;;;;;;;3.45;1.60;;;8.70;60.60;;;;;;5115309;28;20050;-72
2022/03/10 09:42:37;;;;;;;2.63;1.48;;;8.80;60.50;;;;;;5115220;28;20388;-73
2022/03/10 09:45:07;;;;;;;2.63;1.40;;;9.00;60.50;;;;;;5097201;28;20052;-71
2022/03/10 09:47:35;;;;;;;2.63;1.40;;;9.00;60.30;;;;;;5115715;28;20481;-70
2022/03/10 09:50:05;;;;;;;2.78;1.50;;;9.10;60.60;;;;;;5115793;28;20123;-71
2022/03/10 09:52:31;;;;;;;3.65;1.92;;;9.20;60.20;;;;;;5115281;28;20125;-71
2022/03/10 09:54:59;;;;;;;2.90;1.58;;;9.40;60.10;;;;;;5114955;28;20043;-71
2022/03/10 09:57:25;;;;;;;2.90;1.63;;;9.30;60.00;;;;;;5115056;28;20143;-71
2022/03/10 09:59:53;;;;;;;3.00;1.60;;;9.40;60.00;;;;;;5096965;28;20473;-72
2022/03/10 10:02:19;;;;;;;2.25;1.42;;;9.50;60.00;;;;;;5115555;28;20081;-71
2022/03/10 10:04:48;;;;;;;2.92;1.50;;;9.50;59.90;;;;;;5096902;28;20060;-71
2022/03/10 10:07:15;;;;;;;3.65;1.65;;;9.70;59.90;;;;;;5114734;28;20044;-71
2022/03/10 10:09:43;;;;;;;3.58;2.08;;;9.70;59.80;;;;;;5096569;28;20401;-71
2022/03/10 10:12:10;;;;;;;4.43;1.88;;;9.80;59.80;;;;;;5115054;28;20040;-71
2022/03/10 10:14:38;;;;;;;3.22;1.90;;;9.90;59.70;;;;;;5096941;28;20036;-72
2022/03/10 10:17:04;;;;;;;3.70;1.75;;;9.90;59.60;;;;;;5096644;28;20085;-72
2022/03/10 10:19:35;;;;;;;3.08;1.67;;;10.00;59.60;;;;;;5115361;28;20043;-73
2022/03/10 10:22:20;;;;;;;3.13;1.70;;;10.10;59.60;;;;;;5096428;28;20493;-73
2022/03/10 10:25:02;;;;;;;3.03;1.50;;;10.20;59.50;;;;;;5096043;28;20550;-72
2022/03/10 10:27:32;;;;;;;3.75;1.90;;;10.30;59.50;;;;;;5113334;28;20042;-72
2022/03/10 10:30:01;;;;;;;3.42;1.55;;;10.30;59.40;;;;;;5096846;28;20086;-72
2022/03/10 10:32:32;;;;;;;3.33;1.80;;;10.40;59.30;;;;;;5114815;28;20069;-70
2022/03/10 10:35:01;;;;;;;4.40;2.10;;;10.50;59.30;;;;;;5115159;28;20067;-71
2022/03/10 10:37:27;;;;;;;3.78;2.15;;;10.60;59.20;;;;;;5096325;28;20063;-70
2022/03/10 10:39:56;;;;;;;3.05;1.50;;;10.70;59.10;;;;;;5114679;28;20604;-72
2022/03/10 10:42:27;;;;;;;3.47;1.83;;;10.80;59.10;;;;;;5115101;28;20043;-73
2022/03/10 10:44:54;;;;;;;;;;;10.90;59.00;;;;;;5096754;28;20096;-73
2022/03/10 10:47:19;;;;;;;2.85;1.60;;;10.90;58.90;;;;;;5079136;28;19951;-73
2022/03/10 10:49:56;;;;;;;2.55;1.55;;;11.00;58.80;;;;;;5114988;28;20048;-74
2022/03/10 10:52:22;;;;;;;2.10;1.35;;;11.20;58.70;;;;;;5114645;28;20590;-71
2022/03/10 10:54:48;;;;;;;3.30;1.98;;;11.20;58.60;;;;;;5114565;28;20047;-74
2022/03/10 10:57:21;;;;;;;3.50;1.80;;;11.30;58.50;;;;;;5114617;28;20051;-73
2022/03/10 10:59:47;;;;;;;2.83;1.67;;;11.50;58.40;;;;;;5095107;28;20050;-73
2022/03/10 11:02:19;;;;;;;2.67;1.58;;;11.60;58.40;;;;;;5114544;28;20031;-72
2022/03/10 11:04:47;;;;;;;2.05;1.40;;;11.70;58.30;;;;;;5114934;28;20043;-73
2022/03/10 11:07:14;;;;;;;3.03;1.55;;;11.80;58.10;;;;;;5114312;28;20066;-74
2022/03/10 11:09:42;;;;;;;3.08;1.70;;;12.00;58.00;;;;;;5114778;28;20035;-74
2022/03/10 11:12:10;;;;;;;2.55;1.35;;;12.10;57.90;;;;;;5114657;28;20042;-74
2022/03/10 11:14:36;;;;;;;3.60;1.85;;;12.10;57.80;;;;;;5114816;28;20118;-73
2022/03/10 11:17:03;;;;;;;2.97;1.60;;;12.10;57.70;;;;;;5114746;28;20134;-74
2022/03/10 11:19:35;;;;;;;3.17;1.70;;;12.30;57.70;;;;;;5114227;28;20417;-73
2022/03/10 11:22:22;;;;;;;3.88;1.70;;;12.40;57.60;;;;;;5096667;28;20032;-73
2022/03/10 11:25:13;;;;;;;2.58;1.42;;;12.50;57.50;;;;;;5112773;28;20048;-73
2022/03/10 11:27:47;;;;;;;2.83;1.55;;;12.50;57.40;;;;;;5113853;28;20046;-73
2022/03/10 11:30:13;;;;;;;2.85;1.60;;;12.70;57.40;;;;;;5114373;28;20079;-72
2022/03/10 11:32:38;;;;;;;3.75;1.80;;;12.80;57.30;;;;;;5114304;28;21003;-73
2022/03/10 11:35:04;;;;;;;3.22;1.65;;;12.90;57.20;;;;;;5095439;28;20039;-74
2022/03/10 11:37:50;;;;;;;2.90;1.60;;;12.90;57.10;;;;;;5113783;28;20067;-74
2022/03/10 11:40:19;;;;;;;2.65;1.50;;;13.00;57.00;;;;;;5111928;28;20039;-73
2022/03/10 11:42:45;;;;;;;4.00;1.90;;;13.10;56.90;;;;;;5095409;28;20458;-73
2022/03/10 11:45:15;;;;;;;3.03;1.83;;;13.20;56.80;;;;;;5113480;28;20071;-73
2022/03/10 11:47:41;;;;;;;3.30;1.75;;;13.30;56.70;;;;;;5095502;28;20473;-74
2022/03/10 11:50:26;;;;;;;3.88;1.75;;;13.30;56.60;;;;;;5113823;28;20031;-74
2022/03/10 11:52:58;;;;;;;3.38;1.83;;;13.40;56.60;;;;;;5114752;28;20035;-73
2022/03/10 11:55:46;;;;;;;3.78;1.77;;;13.50;56.60;;;;;;5114642;28;20032;-73
2022/03/10 11:58:13;;;;;;;3.28;1.85;;;13.50;56.50;;;;;;5096415;28;20050;-74
2022/03/10 12:00:49;;;;;;;3.72;1.85;;;13.60;56.40;;;;;;5113660;28;20050;-74
2022/03/10 12:03:26;;;;;;;3.53;2.00;;;13.70;56.30;;;;;;5113375;28;20051;-74
2022/03/10 12:06:02;;;;;;;3.80;2.15;;;13.80;56.20;;;;;;5095620;28;20051;-74
2022/03/10 12:08:31;;;;;;;4.13;2.00;;;13.90;56.10;;;;;;5095411;28;20611;-75
2022/03/10 12:10:58;;;;;;;4.45;2.10;;;14.00;55.90;;;;;;5113913;28;20032;-74
2022/03/10 12:13:36;;;;;;;3.75;2.17;;;14.10;55.90;;;;;;5113494;28;20484;-74
2022/03/10 12:16:07;;;;;;;3.70;1.90;;;14.20;55.70;;;;;;5113197;28;20036;-74
2022/03/10 12:18:48;;;;;;;;;;;14.30;55.60;;;;;;5113586;28;20489;-74
2022/03/10 12:21:17;;;;;;;3.25;1.90;;;14.30;55.60;;;;;;5112169;28;20331;-74
2022/03/10 12:23:57;;;;;;;3.08;1.65;;;14.50;55.50;;;;;;5094980;28;20610;-74
2022/03/10 12:26:27;;;;;;;3.75;1.88;;;14.50;55.30;;;;;;5113549;28;20044;-74
2022/03/10 12:28:55;;;;;;;3.13;1.80;;;14.70;55.30;;;;;;5095226;28;20048;-73
2022/03/10 12:31:24;;;;;;;3.70;2.13;;;14.70;55.10;;;;;;5094688;28;20040;-73
2022/03/10 12:33:54;;;;;;;3.40;1.95;;;14.80;55.00;;;;;;5112842;28;20082;-73
2022/03/10 12:36:42;;;;;;;4.30;2.30;;;14.90;55.00;;;;;;5113029;28;20043;-74
2022/03/10 12:39:14;;;;;;;3.20;1.80;;;15.00;54.70;;;;;;5112774;28;20035;-74
2022/03/10 12:41:42;;;;;;;3.55;1.88;;;15.00;54.70;;;;;;5111641;28;20075;-76
2022/03/10 12:44:11;;;;;;;3.25;2.00;;;15.10;54.60;;;;;;5113227;28;20035;-75
2022/03/10 12:46:39;;;;;;;3.88;2.08;;;15.20;54.50;;;;;;5094860;28;20517;-76
2022/03/10 12:49:31;;;;;;;3.72;1.75;;;15.20;54.40;;;;;;5016989;28;20052;-75
2022/03/10 12:51:58;;;;;;;2.92;1.80;;;15.30;54.30;;;;;;5019872;28;20044;-74
2022/03/10 12:54:25;;;;;;;2.70;1.58;;;15.30;54.30;;;;;;5016917;28;20037;-75
2022/03/10 12:57:07;;;;;;;3.80;2.03;;;15.30;54.40;;;;;;5016897;28;20041;-74
2022/03/10 12:59:35;;;;;;;4.55;2.13;;;15.50;54.30;;;;;;5049348;28;20053;-73
2022/03/10 13:02:12;;;;;;;3.58;1.90;;;15.50;54.10;;;;;;5033242;28;20041;-72